Time;durP1;ratioP1;P1;durP2;ratioP2;P2;SDS_P1;SDS_P2;PMS_P1;PMS_P2;Temp;Humidity;BMP_temperature;BMP_pressure;BME280_temperature;BME280_humidity;BME280_pressure;Samples;Min_cycle;Max_cycle;Signal;HPM_P1;HPM_P2
2022/01/28 00:04:51;;;;;;;15.60;2.22;;;;;;;;;;5146783;27;20045;-58
2022/01/28 00:07:17;;;;;;;9.73;2.70;;;;;;;;;;5139462;27;20099;-58
2022/01/28 00:09:43;;;;;;;9.27;1.50;;;;;;;;;;5145286;27;20039;-58
2022/01/28 00:12:10;;;;;;;9.20;1.58;;;;;;;;;;5146969;27;20040;-58
2022/01/28 00:14:52;;;;;;;18.77;2.37;;;;;;;;;;5146798;27;20039;-57
2022/01/28 00:38:55;;;;;;;38.85;5.60;;;;;;;;;;5147250;27;20051;-58
2022/01/28 00:41:21;;;;;;;31.67;4.53;;;;;;;;;;5146440;27;20090;-58
2022/01/28 00:43:48;;;;;;;28.65;3.92;;;;;;;;;;5146753;27;20125;-57
2022/01/28 00:46:14;;;;;;;23.40;3.78;;;;;;;;;;5146085;27;20047;-57
2022/01/28 00:48:40;;;;;;;23.98;3.78;;;;;;;;;;5146669;27;20102;-57
2022/01/28 00:51:06;;;;;;;20.80;4.22;;;;;;;;;;5145848;27;20501;-57
2022/01/28 00:53:32;;;;;;;28.38;4.53;;;;;;;;;;5147035;27;20039;-57
2022/01/28 00:55:58;;;;;;;18.63;3.45;;;;;;;;;;5146172;27;20455;-58
2022/01/28 00:58:25;;;;;;;25.10;4.60;;;;;;;;;;5142524;27;20044;-58
2022/01/28 01:00:51;;;;;;;29.08;5.43;;;;;;;;;;5145949;27;20039;-58
2022/01/28 01:03:17;;;;;;;26.55;3.63;;;;;;;;;;5146359;27;20050;-58
2022/01/28 01:05:44;;;;;;;30.85;5.30;;;;;;;;;;5145069;27;20563;-58
2022/01/28 01:08:10;;;;;;;16.23;3.17;;;;;;;;;;5146827;27;20047;-58
2022/01/28 01:10:36;;;;;;;30.20;4.43;;;;;;;;;;5145799;27;20039;-58
2022/01/28 01:13:03;;;;;;;17.80;4.55;;;;;;;;;;5146220;27;20043;-58
2022/01/28 01:15:35;;;;;;;36.37;3.80;;;;;;;;;;5145736;27;20130;-58
2022/01/28 01:18:44;;;;;;;27.13;3.88;;;;;;;;;;5146271;27;20071;-58
2022/01/28 01:21:03;;;;;;;24.60;4.50;;;;;;;;;;5143419;27;20043;-58
2022/01/28 01:23:33;;;;;;;25.95;3.75;;;;;;;;;;5146091;27;20079;-58
2022/01/28 01:28:33;;;;;;;28.73;4.45;;;;;;;;;;5146062;27;20088;-58
2022/01/28 01:31:01;;;;;;;26.80;5.13;;;;;;;;;;5145831;27;20095;-58
2022/01/28 01:33:30;;;;;;;19.85;3.95;;;;;;;;;;5145930;27;20035;-58
2022/01/28 01:35:58;;;;;;;36.95;5.13;;;;;;;;;;5144756;27;20083;-58
2022/01/28 01:38:27;;;;;;;26.15;4.30;;;;;;;;;;5145952;27;20070;-58
2022/01/28 01:40:57;;;;;;;22.45;5.03;;;;;;;;;;5145820;27;20114;-57
2022/01/28 01:54:01;;;;;;;30.83;5.75;;;;;;;;;;5145644;27;20050;-58
2022/01/28 01:56:27;;;;;;;22.55;4.28;;;;;;;;;;5144926;27;20043;-58
2022/01/28 01:58:54;;;;;;;21.45;3.90;;;;;;;;;;5145784;27;20108;-58
2022/01/28 02:01:20;;;;;;;31.15;4.90;;;;;;;;;;5145623;27;20047;-58
2022/01/28 02:03:47;;;;;;;34.13;5.93;;;;;;;;;;5145680;27;20522;-56
2022/01/28 02:06:14;;;;;;;29.70;4.97;;;;;;;;;;5144625;27;20051;-57
2022/01/28 02:08:40;;;;;;;27.88;4.65;;;;;;;;;;5144988;28;20067;-58
2022/01/28 02:11:06;;;;;;;27.40;5.25;;;;;;;;;;5145086;27;20487;-58
2022/01/28 02:13:35;;;;;;;28.30;4.38;;;;;;;;;;5145154;27;20051;-58
2022/01/28 02:16:01;;;;;;;18.42;3.53;;;;;;;;;;5145261;27;20057;-58
2022/01/28 02:18:27;;;;;;;25.17;4.05;;;;;;;;;;5145413;27;20047;-58
2022/01/28 02:20:59;;;;;;;21.90;4.32;;;;;;;;;;5144547;28;20039;-58
2022/01/28 02:23:25;;;;;;;31.83;4.18;;;;;;;;;;5145352;27;20058;-58
2022/01/28 02:25:51;;;;;;;30.00;5.05;;;;;;;;;;5145140;28;20047;-58
2022/01/28 02:28:21;;;;;;;24.92;4.30;;;;;;;;;;5144950;27;20051;-58
2022/01/28 02:30:47;;;;;;;25.98;4.30;;;;;;;;;;5144960;27;20083;-58
2022/01/28 02:33:17;;;;;;;28.02;4.95;;;;;;;;;;5145622;27;20043;-58
2022/01/28 02:35:44;;;;;;;27.30;3.80;;;;;;;;;;5144254;27;20515;-58
2022/01/28 02:38:14;;;;;;;28.05;4.65;;;;;;;;;;5145278;27;20043;-58
2022/01/28 02:40:44;;;;;;;39.90;5.13;;;;;;;;;;5161096;27;20077;-58
2022/01/28 02:43:26;;;;;;;26.42;4.78;;;;;;;;;;5144861;27;20079;-57
2022/01/28 02:45:55;;;;;;;29.48;5.03;;;;;;;;;;5144800;27;20039;-56
2022/01/28 02:48:25;;;;;;;24.67;4.97;;;;;;;;;;5144921;27;20495;-59
2022/01/28 02:53:26;;;;;;;47.38;8.27;;;;;;;;;;5145078;27;20110;-57
2022/01/28 02:56:02;;;;;;;25.88;4.20;;;;;;;;;;5144484;27;20528;-57
2022/01/28 02:58:28;;;;;;;35.60;4.50;;;;;;;;;;5143536;27;20054;-56
2022/01/28 03:00:56;;;;;;;42.38;5.38;;;;;;;;;;5128171;28;20107;-55
2022/01/28 03:03:24;;;;;;;25.55;4.90;;;;;;;;;;5127889;28;20052;-57
2022/01/28 03:05:50;;;;;;;24.30;4.40;;;;;;;;;;5137152;27;20059;-56
2022/01/28 03:08:17;;;;;;;17.75;3.83;;;;;;;;;;5148659;27;20130;-55
2022/01/28 03:16:11;;;;;;;27.33;4.85;;;;;;;;;;5148451;27;20051;-56
2022/01/28 03:21:38;;;;;;;27.52;4.60;;;;;;;;;;5147805;27;20524;-57
2022/01/28 03:24:07;;;;;;;33.70;5.88;;;;;;;;;;5148246;27;20084;-56
2022/01/28 03:26:33;;;;;;;18.00;3.70;;;;;;;;;;5148105;27;20430;-57
2022/01/28 03:28:59;;;;;;;21.63;4.50;;;;;;;;;;5148522;27;20054;-56
2022/01/28 03:31:25;;;;;;;27.70;3.88;;;;;;;;;;5148037;27;20066;-55
2022/01/28 03:33:51;;;;;;;21.10;3.22;;;;;;;;;;5147891;27;20066;-54
2022/01/28 03:36:18;;;;;;;31.85;5.97;;;;;;;;;;5147553;27;20047;-55
2022/01/28 03:38:47;;;;;;;21.20;3.22;;;;;;;;;;5148117;27;20050;-55
2022/01/28 03:41:16;;;;;;;20.33;3.65;;;;;;;;;;5148028;27;20073;-57
2022/01/28 03:43:43;;;;;;;35.42;6.13;;;;;;;;;;5147919;27;20051;-54
2022/01/28 03:46:10;;;;;;;23.90;4.73;;;;;;;;;;5147973;27;20074;-55
2022/01/28 03:48:36;;;;;;;25.30;3.83;;;;;;;;;;5148006;27;20292;-56
2022/01/28 03:51:02;;;;;;;26.63;4.00;;;;;;;;;;5147142;27;20035;-56
2022/01/28 03:53:28;;;;;;;32.80;5.10;;;;;;;;;;5148757;27;20072;-56
2022/01/28 03:55:57;;;;;;;20.00;4.13;;;;;;;;;;5147615;27;20054;-57
2022/01/28 03:58:23;;;;;;;33.05;4.68;;;;;;;;;;5147812;27;20042;-56
2022/01/28 04:00:51;;;;;;;31.83;4.35;;;;;;;;;;5147634;27;20061;-56
2022/01/28 04:13:49;;;;;;;19.85;5.63;;;;;;;;;;5162819;27;20050;-57
2022/01/28 04:18:41;;;;;;;30.20;4.28;;;;;;;;;;5147208;27;20051;-55
2022/01/28 04:21:07;;;;;;;20.33;4.10;;;;;;;;;;5146423;27;20039;-56
2022/01/28 04:23:34;;;;;;;21.77;3.15;;;;;;;;;;5150174;27;20077;-56
2022/01/28 04:26:00;;;;;;;21.52;4.07;;;;;;;;;;5168115;27;20062;-55
2022/01/28 04:28:26;;;;;;;38.65;5.38;;;;;;;;;;5167653;27;20070;-57
2022/01/28 04:30:52;;;;;;;16.30;3.17;;;;;;;;;;5168190;27;20053;-56
2022/01/28 04:33:18;;;;;;;28.35;4.00;;;;;;;;;;5164821;27;20098;-56
2022/01/28 04:35:49;;;;;;;20.30;3.50;;;;;;;;;;5146242;27;20095;-56
2022/01/28 04:43:34;;;;;;;25.80;4.50;;;;;;;;;;5150112;27;20047;-56
2022/01/28 04:46:14;;;;;;;17.15;4.00;;;;;;;;;;5167483;27;20043;-57
2022/01/28 04:48:49;;;;;;;20.38;4.78;;;;;;;;;;5158148;27;20047;-58
2022/01/28 04:51:34;;;;;;;36.50;6.75;;;;;;;;;;5146447;27;20182;-57
2022/01/28 04:54:11;;;;;;;33.15;5.00;;;;;;;;;;5157116;27;20126;-58
2022/01/28 05:27:38;;;;;;;25.90;4.25;;;;;;;;;;5166545;27;20042;-55
2022/01/28 05:30:06;;;;;;;22.83;5.00;;;;;;;;;;5166599;27;20068;-55
2022/01/28 05:32:32;;;;;;;28.02;4.63;;;;;;;;;;5166740;27;20042;-56
2022/01/28 05:34:58;;;;;;;21.25;3.60;;;;;;;;;;5147265;27;20607;-56
2022/01/28 05:37:24;;;;;;;27.95;4.63;;;;;;;;;;5145103;27;20162;-55
2022/01/28 05:39:50;;;;;;;23.98;4.55;;;;;;;;;;5145757;27;20099;-56
2022/01/28 05:42:16;;;;;;;21.95;4.07;;;;;;;;;;5145382;27;20054;-57
2022/01/28 05:44:42;;;;;;;30.13;5.13;;;;;;;;;;5163608;27;20095;-54
2022/01/28 05:47:13;;;;;;;26.20;5.22;;;;;;;;;;5166310;27;20112;-56
2022/01/28 05:49:41;;;;;;;27.83;4.22;;;;;;;;;;5167096;27;20043;-54
2022/01/28 05:52:07;;;;;;;28.15;5.22;;;;;;;;;;5165593;27;20582;-57
2022/01/28 05:54:33;;;;;;;25.92;4.15;;;;;;;;;;5148116;27;20088;-56
2022/01/28 05:56:59;;;;;;;38.58;5.38;;;;;;;;;;5143990;27;20080;-57
2022/01/28 05:59:25;;;;;;;29.10;4.45;;;;;;;;;;5145649;27;20039;-56
2022/01/28 06:01:52;;;;;;;34.40;4.47;;;;;;;;;;5145202;27;20047;-56
2022/01/28 06:04:19;;;;;;;23.10;4.55;;;;;;;;;;5146894;27;20051;-57
2022/01/28 06:06:45;;;;;;;;;;;;;;;;;;5145367;27;20051;-56
2022/01/28 06:09:12;;;;;;;35.33;5.35;;;;;;;;;;5145413;27;19919;-56
2022/01/28 06:11:38;;;;;;;33.28;4.47;;;;;;;;;;5145160;28;20065;-56
2022/01/28 06:14:04;;;;;;;28.45;5.22;;;;;;;;;;5152148;27;20039;-56
2022/01/28 06:16:30;;;;;;;36.90;5.25;;;;;;;;;;5165407;27;20066;-58
2022/01/28 06:18:57;;;;;;;25.25;6.20;;;;;;;;;;5166751;27;20035;-57
2022/01/28 06:21:23;;;;;;;28.83;4.63;;;;;;;;;;5165258;27;20469;-57
2022/01/28 06:23:51;;;;;;;29.20;5.63;;;;;;;;;;5155177;27;20178;-58
2022/01/28 06:26:18;;;;;;;24.00;3.92;;;;;;;;;;5145092;27;20065;-57
2022/01/28 06:28:44;;;;;;;35.88;5.68;;;;;;;;;;5144798;28;20047;-56
2022/01/28 06:31:10;;;;;;;33.50;4.10;;;;;;;;;;5145020;28;20704;-58
2022/01/28 06:33:37;;;;;;;35.17;4.75;;;;;;;;;;5154655;27;20070;-56
2022/01/28 06:36:03;;;;;;;25.80;4.45;;;;;;;;;;5169350;27;20035;-56
2022/01/28 06:38:30;;;;;;;12.63;3.42;;;;;;;;;;5170075;27;20042;-56
2022/01/28 06:40:56;;;;;;;26.60;3.33;;;;;;;;;;5170058;27;20133;-56
2022/01/28 06:43:22;;;;;;;19.40;3.42;;;;;;;;;;5163155;27;20117;-56
2022/01/28 06:45:48;;;;;;;39.95;4.25;;;;;;;;;;5155115;27;20042;-56
2022/01/28 06:48:16;;;;;;;25.90;3.50;;;;;;;;;;5165263;27;20042;-56
2022/01/28 06:50:42;;;;;;;29.30;4.40;;;;;;;;;;5165162;27;20047;-56
2022/01/28 06:53:10;;;;;;;25.55;5.95;;;;;;;;;;5151495;27;20039;-56
2022/01/28 06:55:36;;;;;;;29.13;5.97;;;;;;;;;;5148281;27;20125;-57
2022/01/28 06:58:04;;;;;;;25.85;3.47;;;;;;;;;;5157266;27;20430;-57
2022/01/28 07:00:37;;;;;;;29.15;3.33;;;;;;;;;;5153305;27;20073;-58
2022/01/28 07:03:04;;;;;;;39.10;5.30;;;;;;;;;;5155031;27;20127;-56
2022/01/28 07:05:30;;;;;;;17.35;3.60;;;;;;;;;;5151735;27;20051;-57
2022/01/28 07:07:56;;;;;;;23.17;4.40;;;;;;;;;;5148762;27;20440;-56
2022/01/28 07:10:23;;;;;;;25.15;4.55;;;;;;;;;;5164831;27;20553;-57
2022/01/28 07:12:49;;;;;;;36.83;4.15;;;;;;;;;;5168920;27;20055;-57
2022/01/28 07:15:16;;;;;;;34.20;5.95;;;;;;;;;;5155013;27;20099;-58
2022/01/28 07:17:42;;;;;;;31.98;5.13;;;;;;;;;;5148435;27;20051;-58
2022/01/28 07:20:09;;;;;;;33.85;4.78;;;;;;;;;;5164921;27;20042;-57
2022/01/28 07:22:35;;;;;;;42.10;6.10;;;;;;;;;;5159285;27;20043;-58
2022/01/28 07:25:01;;;;;;;29.27;4.47;;;;;;;;;;5152132;27;21567;-57
2022/01/28 07:27:27;;;;;;;30.55;4.95;;;;;;;;;;5147785;27;20067;-57
2022/01/28 07:29:53;;;;;;;35.33;5.82;;;;;;;;;;5148280;27;20549;-57
2022/01/28 07:32:19;;;;;;;25.65;5.60;;;;;;;;;;5149178;27;20127;-57
2022/01/28 07:34:47;;;;;;;28.67;4.75;;;;;;;;;;5160205;27;20042;-57
2022/01/28 07:37:13;;;;;;;35.28;4.93;;;;;;;;;;5168293;27;20039;-57
2022/01/28 07:39:39;;;;;;;37.25;5.63;;;;;;;;;;5168875;27;20107;-57
2022/01/28 07:42:06;;;;;;;21.05;3.55;;;;;;;;;;5168470;27;20039;-55
2022/01/28 07:44:32;;;;;;;33.70;4.40;;;;;;;;;;5162663;27;20035;-57
2022/01/28 07:46:58;;;;;;;38.80;6.97;;;;;;;;;;5146897;27;20043;-56
2022/01/28 07:49:24;;;;;;;26.60;4.75;;;;;;;;;;5148351;27;20092;-57
2022/01/28 07:51:50;;;;;;;30.52;5.35;;;;;;;;;;5147184;27;20057;-57
2022/01/28 07:54:16;;;;;;;27.08;4.88;;;;;;;;;;5151093;27;20035;-56
2022/01/28 07:56:43;;;;;;;32.97;5.75;;;;;;;;;;5168278;27;20042;-56
2022/01/28 07:59:09;;;;;;;29.60;5.68;;;;;;;;;;5161725;27;20127;-57
2022/01/28 08:01:36;;;;;;;35.05;5.00;;;;;;;;;;5147470;27;20103;-57
2022/01/28 08:04:02;;;;;;;32.45;5.63;;;;;;;;;;5148431;27;20483;-56
2022/01/28 08:06:30;;;;;;;19.92;4.80;;;;;;;;;;5152114;27;20047;-57
2022/01/28 08:08:58;;;;;;;37.17;5.82;;;;;;;;;;5146996;27;20095;-56
2022/01/28 08:11:24;;;;;;;23.17;4.78;;;;;;;;;;5146865;27;20517;-57
2022/01/28 08:13:50;;;;;;;29.17;5.28;;;;;;;;;;5147185;27;20047;-56
2022/01/28 08:16:16;;;;;;;31.75;4.60;;;;;;;;;;5156396;27;20559;-56
2022/01/28 08:18:43;;;;;;;25.92;4.40;;;;;;;;;;5160059;27;20043;-56
2022/01/28 08:21:09;;;;;;;32.70;4.15;;;;;;;;;;5167807;27;20072;-56
2022/01/28 08:23:36;;;;;;;32.92;5.55;;;;;;;;;;5147738;27;20043;-56
2022/01/28 08:26:02;;;;;;;30.88;4.45;;;;;;;;;;5136621;27;20043;-57
2022/01/28 08:28:28;;;;;;;30.48;5.40;;;;;;;;;;5127243;27;20039;-56
2022/01/28 08:30:55;;;;;;;23.70;5.57;;;;;;;;;;5146307;27;20050;-56
2022/01/28 08:33:21;;;;;;;34.13;6.22;;;;;;;;;;5145870;27;20043;-55
2022/01/28 08:35:52;;;;;;;26.88;4.18;;;;;;;;;;5145941;27;20122;-56
2022/01/28 08:38:26;;;;;;;34.38;4.80;;;;;;;;;;5146887;27;20035;-55
2022/01/28 08:40:53;;;;;;;23.90;4.63;;;;;;;;;;5147319;27;20118;-56
2022/01/28 08:43:20;;;;;;;21.67;4.87;;;;;;;;;;5150021;27;20414;-57
2022/01/28 08:45:46;;;;;;;34.35;5.30;;;;;;;;;;5144898;27;20317;-56
2022/01/28 08:48:12;;;;;;;31.90;4.60;;;;;;;;;;5141513;27;20039;-55
2022/01/28 08:50:39;;;;;;;29.80;4.82;;;;;;;;;;5143940;27;20049;-55
2022/01/28 08:53:05;;;;;;;33.33;4.97;;;;;;;;;;5140675;27;20046;-56
2022/01/28 08:55:32;;;;;;;34.03;5.07;;;;;;;;;;5149541;27;20039;-57
2022/01/28 08:57:58;;;;;;;37.58;5.68;;;;;;;;;;5146006;27;20129;-56
2022/01/28 09:00:24;;;;;;;31.65;5.80;;;;;;;;;;5148773;27;20051;-58
2022/01/28 09:02:51;;;;;;;35.70;5.30;;;;;;;;;;5148609;27;20043;-57
2022/01/28 09:05:17;;;;;;;32.08;4.55;;;;;;;;;;5148001;27;20054;-56
2022/01/28 09:07:43;;;;;;;31.55;5.03;;;;;;;;;;5150761;27;20039;-57
2022/01/28 09:10:18;;;;;;;35.17;5.03;;;;;;;;;;5148664;27;20040;-56
2022/01/28 09:12:59;;;;;;;27.52;4.13;;;;;;;;;;5147003;27;20058;-58
2022/01/28 09:15:25;;;;;;;27.40;5.07;;;;;;;;;;5149782;27;20496;-56
2022/01/28 09:17:52;;;;;;;36.33;5.07;;;;;;;;;;5140674;27;20051;-57
2022/01/28 09:20:18;;;;;;;31.00;4.55;;;;;;;;;;5140212;27;20467;-57
2022/01/28 09:22:44;;;;;;;26.45;4.22;;;;;;;;;;5146636;27;20031;-58
2022/01/28 09:25:10;;;;;;;27.23;4.50;;;;;;;;;;5147092;27;20054;-59
2022/01/28 09:27:36;;;;;;;28.25;4.57;;;;;;;;;;5147681;27;20370;-57
2022/01/28 09:30:02;;;;;;;23.77;5.55;;;;;;;;;;5151052;27;20043;-57
2022/01/28 09:32:28;;;;;;;34.78;5.38;;;;;;;;;;5144026;27;21406;-59
2022/01/28 09:34:55;;;;;;;41.30;5.47;;;;;;;;;;5140741;27;20035;-59
2022/01/28 09:37:21;;;;;;;33.78;5.30;;;;;;;;;;5140313;27;20043;-59
2022/01/28 09:39:48;;;;;;;30.90;5.03;;;;;;;;;;5140581;27;20107;-59
2022/01/28 09:42:16;;;;;;;29.48;4.80;;;;;;;;;;5139857;27;20457;-60
2022/01/28 09:44:43;;;;;;;31.95;4.28;;;;;;;;;;5137699;27;20107;-59
2022/01/28 09:47:13;;;;;;;29.50;4.68;;;;;;;;;;5134659;27;20057;-59
2022/01/28 09:49:42;;;;;;;30.60;4.65;;;;;;;;;;5136729;27;20608;-60
2022/01/28 09:52:09;;;;;;;30.58;4.30;;;;;;;;;;5142449;27;20467;-60
2022/01/28 09:54:35;;;;;;;26.17;4.85;;;;;;;;;;5144668;27;20050;-59
2022/01/28 09:57:02;;;;;;;21.95;3.60;;;;;;;;;;5140409;27;20040;-59
2022/01/28 09:59:28;;;;;;;23.43;4.57;;;;;;;;;;5132744;27;20135;-59
2022/01/28 10:01:55;;;;;;;27.38;5.85;;;;;;;;;;5134095;27;20047;-59
2022/01/28 10:04:21;;;;;;;34.53;5.10;;;;;;;;;;5143218;27;20061;-61
2022/01/28 10:06:48;;;;;;;24.42;4.97;;;;;;;;;;5143664;27;20131;-60
2022/01/28 10:09:16;;;;;;;26.38;5.57;;;;;;;;;;5144256;27;20080;-60
2022/01/28 10:11:45;;;;;;;23.65;4.00;;;;;;;;;;5145080;27;20101;-60
2022/01/28 10:14:17;;;;;;;30.00;3.85;;;;;;;;;;5147118;27;20091;-60
2022/01/28 10:16:43;;;;;;;31.75;4.57;;;;;;;;;;5143887;27;20043;-60
2022/01/28 10:19:11;;;;;;;28.98;4.45;;;;;;;;;;5137829;27;20747;-60
2022/01/28 10:21:44;;;;;;;22.27;3.92;;;;;;;;;;5141509;27;20058;-61
2022/01/28 10:24:27;;;;;;;32.03;4.90;;;;;;;;;;5145514;27;20146;-61
2022/01/28 10:27:05;;;;;;;22.02;3.65;;;;;;;;;;5142173;27;20043;-59
2022/01/28 10:29:36;;;;;;;29.00;4.75;;;;;;;;;;5146264;27;20059;-60
2022/01/28 10:32:03;;;;;;;28.83;4.13;;;;;;;;;;5141084;27;20071;-60
2022/01/28 10:34:29;;;;;;;24.70;4.63;;;;;;;;;;5141532;27;20171;-59
2022/01/28 10:37:14;;;;;;;27.95;4.78;;;;;;;;;;5141692;27;20053;-60
2022/01/28 10:39:42;;;;;;;32.80;6.57;;;;;;;;;;5140876;27;20050;-60
2022/01/28 10:42:08;;;;;;;;;;;;;;;;;;5143697;27;20471;-60
2022/01/28 10:44:50;;;;;;;37.55;6.63;;;;;;;;;;5143287;27;19980;-60
2022/01/28 10:47:28;;;;;;;26.75;4.20;;;;;;;;;;5138395;27;20039;-58
2022/01/28 10:49:54;;;;;;;39.42;5.68;;;;;;;;;;5135864;27;20049;-58
2022/01/28 10:52:30;;;;;;;28.00;4.30;;;;;;;;;;5139899;27;20052;-58
2022/01/28 10:54:59;;;;;;;28.00;3.90;;;;;;;;;;5142975;27;20123;-57
2022/01/28 10:57:25;;;;;;;30.77;6.53;;;;;;;;;;5141374;27;20235;-58
2022/01/28 10:59:52;;;;;;;25.48;4.38;;;;;;;;;;5143830;27;20439;-58
2022/01/28 11:02:19;;;;;;;26.02;4.10;;;;;;;;;;5141588;27;20140;-58
2022/01/28 11:04:46;;;;;;;20.85;5.55;;;;;;;;;;5137121;27;20191;-58
2022/01/28 11:07:12;;;;;;;23.92;4.20;;;;;;;;;;5144226;27;20047;-58
2022/01/28 11:09:40;;;;;;;22.75;4.07;;;;;;;;;;5138835;27;20039;-58
2022/01/28 11:12:07;;;;;;;26.85;4.05;;;;;;;;;;5142503;27;20051;-58
2022/01/28 11:14:33;;;;;;;27.17;5.40;;;;;;;;;;5128259;27;20050;-58
2022/01/28 11:16:59;;;;;;;22.38;3.63;;;;;;;;;;5144041;28;20085;-58
2022/01/28 11:19:28;;;;;;;27.58;4.30;;;;;;;;;;5128874;27;20069;-58
2022/01/28 11:21:57;;;;;;;16.73;3.55;;;;;;;;;;5144903;27;20039;-60
2022/01/28 11:24:23;;;;;;;24.75;4.03;;;;;;;;;;5146325;27;20055;-58
2022/01/28 11:27:01;;;;;;;41.28;4.45;;;;;;;;;;5145878;27;20070;-60
2022/01/28 11:29:28;;;;;;;30.80;4.57;;;;;;;;;;5151638;27;20042;-62
2022/01/28 11:31:56;;;;;;;23.35;4.43;;;;;;;;;;5145545;27;20039;-61
2022/01/28 11:34:30;;;;;;;28.42;3.83;;;;;;;;;;5146130;27;20037;-60
2022/01/28 11:37:19;;;;;;;26.42;3.28;;;;;;;;;;5143398;27;20039;-59
2022/01/28 11:39:46;;;;;;;23.67;3.80;;;;;;;;;;5142661;27;20054;-59
2022/01/28 11:42:15;;;;;;;30.17;5.25;;;;;;;;;;5140347;27;20039;-60
2022/01/28 11:44:41;;;;;;;35.53;4.97;;;;;;;;;;5144100;27;20058;-65
2022/01/28 11:47:10;;;;;;;26.00;3.72;;;;;;;;;;5148066;27;20123;-63
2022/01/28 11:49:54;;;;;;;25.63;3.72;;;;;;;;;;5145590;27;20050;-63
2022/01/28 11:52:22;;;;;;;20.30;4.13;;;;;;;;;;5147027;27;20579;-61
2022/01/28 11:54:48;;;;;;;22.27;3.47;;;;;;;;;;5139463;27;20031;-62
2022/01/28 11:57:15;;;;;;;31.35;4.60;;;;;;;;;;5131201;27;20118;-61
2022/01/28 11:59:41;;;;;;;30.80;4.05;;;;;;;;;;5134247;27;20044;-60
2022/01/28 12:02:08;;;;;;;25.58;4.15;;;;;;;;;;5128785;27;20027;-59
2022/01/28 12:04:42;;;;;;;33.22;6.13;;;;;;;;;;5137807;27;20136;-61
2022/01/28 12:07:15;;;;;;;28.75;4.65;;;;;;;;;;5135344;27;20051;-63
2022/01/28 12:09:46;;;;;;;23.90;4.47;;;;;;;;;;5130283;27;20403;-61
2022/01/28 12:12:14;;;;;;;29.33;4.43;;;;;;;;;;5137141;27;20039;-60
2022/01/28 12:14:49;;;;;;;30.25;6.20;;;;;;;;;;5141513;27;20040;-63
2022/01/28 12:17:31;;;;;;;22.13;4.07;;;;;;;;;;5147263;27;20494;-61
2022/01/28 12:20:27;;;;;;;20.90;3.88;;;;;;;;;;5139195;27;20051;-61
2022/01/28 12:23:05;;;;;;;32.53;3.85;;;;;;;;;;5120522;27;20111;-61
2022/01/28 12:25:37;;;;;;;22.13;3.33;;;;;;;;;;5127443;27;20035;-62
2022/01/28 12:28:16;;;;;;;27.52;4.60;;;;;;;;;;5141270;27;20035;-60
2022/01/28 12:30:49;;;;;;;30.70;4.10;;;;;;;;;;5143640;27;20091;-61
2022/01/28 12:33:20;;;;;;;28.15;4.38;;;;;;;;;;5141212;27;20035;-58
2022/01/28 12:35:50;;;;;;;15.15;2.40;;;;;;;;;;5135156;27;20044;-59
2022/01/28 12:38:20;;;;;;;22.08;3.05;;;;;;;;;;5136907;27;20042;-59
2022/01/28 12:40:49;;;;;;;23.00;3.42;;;;;;;;;;5143232;27;20054;-61
2022/01/28 12:43:19;;;;;;;18.65;3.70;;;;;;;;;;5144121;27;20038;-60
2022/01/28 12:46:01;;;;;;;16.90;3.33;;;;;;;;;;5149596;27;20379;-60
2022/01/28 12:48:27;;;;;;;22.40;2.97;;;;;;;;;;5143902;27;20075;-61
2022/01/28 12:50:54;;;;;;;15.23;3.60;;;;;;;;;;5147936;27;20045;-60
2022/01/28 12:53:27;;;;;;;17.80;3.57;;;;;;;;;;5141793;27;20055;-62
2022/01/28 12:55:53;;;;;;;24.63;4.05;;;;;;;;;;5138429;27;20072;-60
2022/01/28 12:58:19;;;;;;;15.63;2.90;;;;;;;;;;5144817;27;20047;-60
2022/01/28 13:00:45;;;;;;;23.48;4.07;;;;;;;;;;5141517;27;20058;-61
2022/01/28 13:03:27;;;;;;;20.17;3.35;;;;;;;;;;5136550;27;20035;-62
2022/01/28 13:05:57;;;;;;;19.52;3.65;;;;;;;;;;5142942;27;20050;-63
2022/01/28 13:08:27;;;;;;;18.50;4.78;;;;;;;;;;5140542;27;20035;-61
2022/01/28 13:10:53;;;;;;;19.15;3.80;;;;;;;;;;5147745;27;20402;-63
2022/01/28 13:13:19;;;;;;;24.58;3.72;;;;;;;;;;5145674;27;20091;-59
2022/01/28 13:15:53;;;;;;;17.90;3.30;;;;;;;;;;5146661;27;20031;-59
2022/01/28 13:18:19;;;;;;;26.02;3.58;;;;;;;;;;5150153;27;20111;-60
2022/01/28 13:20:45;;;;;;;23.70;4.00;;;;;;;;;;5144147;27;20071;-60
2022/01/28 13:23:12;;;;;;;18.45;4.22;;;;;;;;;;5135814;27;20645;-61
2022/01/28 13:25:39;;;;;;;17.45;2.88;;;;;;;;;;5135502;27;20065;-63
2022/01/28 13:28:12;;;;;;;21.92;4.38;;;;;;;;;;5141558;27;20051;-63
2022/01/28 13:30:40;;;;;;;19.00;4.35;;;;;;;;;;5136751;27;20073;-63
2022/01/28 13:33:08;;;;;;;17.17;3.40;;;;;;;;;;5143662;27;20056;-63
2022/01/28 13:35:35;;;;;;;;;;;;;;;;;;5144367;27;20043;-62
2022/01/28 13:38:07;;;;;;;22.60;3.33;;;;;;;;;;5137255;27;19993;-58
2022/01/28 13:40:37;;;;;;;23.70;4.60;;;;;;;;;;5142146;27;20039;-57
2022/01/28 13:43:11;;;;;;;16.85;3.65;;;;;;;;;;5135409;27;20037;-57
2022/01/28 13:46:03;;;;;;;18.52;3.92;;;;;;;;;;5130801;27;20126;-58
2022/01/28 13:48:33;;;;;;;18.25;2.60;;;;;;;;;;5144664;27;20587;-58
2022/01/28 13:51:11;;;;;;;17.70;4.63;;;;;;;;;;5144524;27;20062;-58
2022/01/28 13:54:15;;;;;;;;;;;;;;;;;;5144591;27;20062;-57
2022/01/28 13:56:25;;;;;;;17.85;3.47;;;;;;;;;;5145406;27;19926;-64
2022/01/28 13:58:52;;;;;;;17.58;3.30;;;;;;;;;;5143533;27;20148;-63
2022/01/28 14:01:23;;;;;;;9.73;2.40;;;;;;;;;;5143813;27;20415;-62
2022/01/28 14:03:50;;;;;;;17.75;3.20;;;;;;;;;;5134192;27;20035;-62
2022/01/28 14:06:17;;;;;;;17.55;2.63;;;;;;;;;;5139158;28;20050;-62
2022/01/28 14:08:48;;;;;;;21.42;3.13;;;;;;;;;;5148980;27;20087;-61
2022/01/28 14:11:24;;;;;;;17.90;3.72;;;;;;;;;;5140226;27;20058;-61
2022/01/28 14:14:17;;;;;;;18.23;3.97;;;;;;;;;;5139479;27;20077;-61
2022/01/28 14:16:56;;;;;;;23.40;3.70;;;;;;;;;;5132452;28;20047;-64
2022/01/28 14:19:23;;;;;;;17.05;3.92;;;;;;;;;;5132253;27;20069;-63
2022/01/28 14:21:49;;;;;;;14.98;3.55;;;;;;;;;;5135567;28;20053;-63
2022/01/28 14:24:17;;;;;;;31.75;3.50;;;;;;;;;;5142741;27;20050;-63
2022/01/28 14:26:44;;;;;;;17.77;3.58;;;;;;;;;;5157263;27;20118;-64
2022/01/28 14:29:25;;;;;;;22.48;3.80;;;;;;;;;;5130227;27;20074;-64
2022/01/28 14:31:52;;;;;;;16.85;3.38;;;;;;;;;;5136994;27;20043;-64
2022/01/28 14:34:19;;;;;;;20.08;4.55;;;;;;;;;;5142707;27;20908;-58
2022/01/28 14:36:45;;;;;;;21.37;2.90;;;;;;;;;;5140195;28;20039;-58
2022/01/28 14:39:14;;;;;;;19.17;3.50;;;;;;;;;;5144499;27;20432;-58
2022/01/28 14:41:40;;;;;;;6.78;2.03;;;;;;;;;;5142918;27;20072;-58
2022/01/28 14:44:06;;;;;;;29.85;4.32;;;;;;;;;;5132944;27;20054;-60
2022/01/28 14:46:34;;;;;;;21.25;3.28;;;;;;;;;;5137606;27;20138;-61
2022/01/28 14:49:03;;;;;;;29.08;3.65;;;;;;;;;;5138532;27;20067;-61
2022/01/28 14:51:30;;;;;;;16.80;2.88;;;;;;;;;;5144633;27;20047;-61
2022/01/28 14:53:56;;;;;;;17.27;3.40;;;;;;;;;;5147219;27;20546;-61
2022/01/28 14:56:22;;;;;;;19.65;3.45;;;;;;;;;;5147102;27;20117;-62
2022/01/28 14:58:49;;;;;;;16.20;3.05;;;;;;;;;;5149847;27;20088;-61
2022/01/28 15:01:15;;;;;;;18.20;3.50;;;;;;;;;;5151066;27;20046;-61
2022/01/28 15:03:42;;;;;;;16.98;3.20;;;;;;;;;;5149347;27;20323;-62
2022/01/28 15:06:08;;;;;;;18.92;2.60;;;;;;;;;;5152004;27;20085;-63
2022/01/28 15:08:40;;;;;;;12.65;3.30;;;;;;;;;;5150036;27;20196;-62
2022/01/28 15:11:12;;;;;;;20.33;2.90;;;;;;;;;;5151154;27;20044;-63
2022/01/28 15:13:38;;;;;;;19.10;3.25;;;;;;;;;;5142252;27;20126;-62
2022/01/28 15:16:05;;;;;;;13.68;2.60;;;;;;;;;;5148935;27;20042;-62
2022/01/28 15:18:31;;;;;;;19.23;2.67;;;;;;;;;;5151877;27;20079;-62
2022/01/28 15:20:57;;;;;;;16.38;2.90;;;;;;;;;;5146400;27;20106;-62
2022/01/28 15:23:23;;;;;;;14.98;3.10;;;;;;;;;;5144477;27;20046;-60
2022/01/28 15:25:49;;;;;;;12.32;2.10;;;;;;;;;;5144095;27;20049;-58
2022/01/28 15:28:20;;;;;;;16.60;2.35;;;;;;;;;;5151424;27;20050;-58
2022/01/28 15:36:17;;;;;;;23.85;4.55;;;;;;;;;;5141810;27;20411;-60
2022/01/28 15:38:43;;;;;;;17.63;3.67;;;;;;;;;;5144106;27;20110;-60
2022/01/28 15:41:12;;;;;;;15.02;2.85;;;;;;;;;;5147102;27;20050;-60
2022/01/28 15:43:38;;;;;;;23.00;3.17;;;;;;;;;;5142384;27;20108;-60
2022/01/28 15:46:05;;;;;;;20.65;3.53;;;;;;;;;;5142946;27;20091;-61
2022/01/28 15:48:31;;;;;;;16.30;3.47;;;;;;;;;;5142581;27;20149;-63
2022/01/28 15:50:58;;;;;;;15.93;3.58;;;;;;;;;;5142083;27;20054;-63
2022/01/28 15:53:24;;;;;;;16.17;2.80;;;;;;;;;;5147354;27;20202;-65
2022/01/28 15:55:51;;;;;;;14.90;3.15;;;;;;;;;;5146834;27;20078;-64
2022/01/28 15:58:17;;;;;;;28.60;2.75;;;;;;;;;;5145938;27;20064;-64
2022/01/28 16:00:43;;;;;;;17.27;2.72;;;;;;;;;;5136122;27;20046;-65
2022/01/28 16:03:10;;;;;;;17.40;2.92;;;;;;;;;;5155956;27;20046;-58
2022/01/28 16:05:36;;;;;;;22.85;3.95;;;;;;;;;;5156751;27;20065;-60
2022/01/28 16:08:04;;;;;;;19.65;2.97;;;;;;;;;;5158465;27;20046;-60
2022/01/28 16:10:36;;;;;;;20.00;3.03;;;;;;;;;;5149166;27;20122;-60
2022/01/28 16:13:14;;;;;;;23.15;3.40;;;;;;;;;;5142760;27;20439;-63
2022/01/28 16:17:09;;;;;;;21.70;3.33;;;;;;;;;;5128206;27;20042;-60
2022/01/28 16:18:27;;;;;;;17.00;2.67;;;;;;;;;;5158317;27;20068;-60
2022/01/28 16:20:53;;;;;;;17.70;3.15;;;;;;;;;;5156414;27;20485;-60
2022/01/28 16:23:19;;;;;;;19.35;3.42;;;;;;;;;;5151781;27;20092;-61